createdAt,value
2022-09-10T00:00:47.151Z,2.03
2022-09-10T00:03:13.405Z,5.50
2022-09-10T00:05:40.463Z,1.55
2022-09-10T00:08:07.186Z,3.22
2022-09-10T00:10:40.551Z,4.95
2022-09-10T00:13:07.422Z,4.07
2022-09-10T00:15:40.317Z,4.32
2022-09-10T00:18:08.821Z,4.57
2022-09-10T00:20:35.694Z,2.65
2022-09-10T00:23:02.976Z,4.63
2022-09-10T00:25:30.004Z,4.35
2022-09-10T00:27:56.167Z,6.95
2022-09-10T00:30:22.353Z,2.50
2022-09-10T00:32:52.526Z,4.97
2022-09-10T00:35:20.028Z,1.40
2022-09-10T00:37:46.660Z,4.22
2022-09-10T00:40:13.873Z,4.07
2022-09-10T00:42:42.119Z,1.95
2022-09-10T00:45:15.609Z,2.55
2022-09-10T00:47:44.775Z,3.25
2022-09-10T00:50:23.567Z,5.15
2022-09-10T00:52:53.028Z,5.80
2022-09-10T00:55:20.574Z,5.25
2022-09-10T00:57:49.424Z,2.85
2022-09-10T01:00:16.222Z,1.88
2022-09-10T01:02:42.787Z,6.75
2022-09-10T01:05:09.746Z,6.30
2022-09-10T01:07:36.183Z,4.05
2022-09-10T01:10:06.293Z,2.70
2022-09-10T01:12:55.395Z,2.40
2022-09-10T01:15:27.567Z,7.80
2022-09-10T01:17:59.190Z,2.55
2022-09-10T01:20:44.189Z,2.88
2022-09-10T01:23:29.007Z,4.90
2022-09-10T01:26:02.133Z,6.40
2022-09-10T01:28:33.478Z,4.57
2022-09-10T01:31:05.456Z,3.55
2022-09-10T01:33:34.068Z,5.07
2022-09-10T01:36:02.122Z,4.75
2022-09-10T01:38:35.651Z,2.40
2022-09-10T01:41:02.220Z,3.85
2022-09-10T01:43:28.464Z,4.40
2022-09-10T01:46:19.044Z,4.05
2022-09-10T01:49:00.544Z,4.05
2022-09-10T01:51:41.685Z,3.58
2022-09-10T01:54:11.282Z,4.63
2022-09-10T01:56:51.365Z,4.43
2022-09-10T01:59:29.821Z,2.95
2022-09-10T02:02:01.169Z,2.53
2022-09-10T02:04:28.381Z,5.28
2022-09-10T02:06:56.110Z,3.13
2022-09-10T02:09:22.365Z,3.53
2022-09-10T02:11:50.276Z,6.53
2022-09-10T02:14:16.697Z,2.70
2022-09-10T02:16:45.606Z,2.03
2022-09-10T02:19:11.965Z,6.22
2022-09-10T02:21:38.286Z,4.88
2022-09-10T02:24:06.064Z,4.45
2022-09-10T02:26:38.007Z,3.28
2022-09-10T02:29:04.343Z,6.63
2022-09-10T02:31:30.554Z,4.10
2022-09-10T02:33:56.804Z,2.78
2022-09-10T02:36:25.828Z,3.05
2022-09-10T02:38:52.617Z,4.00
2022-09-10T02:41:18.812Z,4.32
2022-09-10T02:43:46.078Z,3.33
2022-09-10T02:46:13.130Z,4.00
2022-09-10T02:48:39.923Z,3.38
2022-09-10T02:51:06.320Z,3.55
2022-09-10T02:53:32.508Z,5.65
2022-09-10T02:55:59.478Z,6.10
2022-09-10T02:58:25.738Z,2.90
2022-09-10T03:00:51.955Z,4.07
2022-09-10T03:03:18.194Z,3.17
2022-09-10T03:05:44.576Z,5.03
2022-09-10T03:08:10.863Z,2.88
2022-09-10T03:10:39.367Z,4.20
2022-09-10T03:13:05.556Z,4.43
2022-09-10T03:15:31.794Z,5.95
2022-09-10T03:17:58.151Z,5.88
2022-09-10T03:20:25.236Z,4.00
2022-09-10T03:22:51.583Z,3.22
2022-09-10T03:25:22.552Z,2.70
2022-09-10T03:27:48.742Z,3.90
2022-09-10T03:30:15.642Z,3.75
2022-09-10T03:32:41.845Z,5.05
2022-09-10T03:35:08.306Z,4.82
2022-09-10T03:37:34.474Z,3.83
2022-09-10T03:40:00.744Z,3.63
2022-09-10T03:42:27.022Z,5.43
2022-09-10T03:44:53.220Z,5.00
2022-09-10T03:47:19.407Z,4.38
2022-09-10T03:49:45.600Z,2.30
2022-09-10T03:52:12.660Z,5.13
2022-09-10T03:54:39.710Z,4.03
2022-09-10T03:57:06.019Z,2.05
2022-09-10T03:59:32.450Z,6.22
2022-09-10T04:01:58.987Z,8.18
2022-09-10T04:04:25.215Z,4.15
2022-09-10T04:06:52.502Z,2.95
2022-09-10T04:09:18.723Z,4.38
2022-09-10T04:11:44.921Z,3.55
2022-09-10T04:14:11.130Z,3.50
2022-09-10T04:16:37.363Z,3.50
2022-09-10T04:19:03.642Z,4.03
2022-09-10T04:21:29.821Z,5.85
2022-09-10T04:23:56.202Z,4.93
2022-09-10T04:26:22.626Z,5.30
2022-09-10T04:28:49.051Z,2.70
2022-09-10T04:31:15.255Z,5.75
2022-09-10T04:33:42.177Z,6.05
2022-09-10T04:36:08.397Z,5.53
2022-09-10T04:38:34.757Z,5.68
2022-09-10T04:41:01.413Z,5.50
2022-09-10T04:43:27.907Z,8.55
2022-09-10T04:45:55.338Z,2.95
2022-09-10T04:48:22.466Z,4.60
2022-09-10T04:51:12.316Z,4.82
2022-09-10T04:53:35.776Z,6.57
2022-09-10T04:56:02.085Z,4.95
2022-09-10T04:58:28.327Z,4.93
2022-09-10T05:00:56.920Z,6.63
2022-09-10T05:03:23.394Z,4.35
2022-09-10T05:05:50.914Z,5.78
2022-09-10T05:08:17.293Z,6.22
2022-09-10T05:10:45.177Z,5.05
2022-09-10T05:13:11.514Z,6.00
2022-09-10T05:15:41.286Z,4.65
2022-09-10T05:18:07.862Z,4.63
2022-09-10T05:20:35.563Z,4.80
2022-09-10T05:23:02.319Z,4.50
2022-09-10T05:25:28.503Z,3.67
2022-09-10T05:27:55.068Z,3.55
2022-09-10T05:30:21.641Z,5.60
2022-09-10T05:32:47.908Z,3.67
2022-09-10T05:35:14.253Z,3.72
2022-09-10T05:37:40.427Z,3.83
2022-09-10T05:40:09.006Z,3.90
2022-09-10T05:42:35.617Z,5.05
2022-09-10T05:45:01.868Z,3.55
2022-09-10T05:47:28.145Z,3.78
2022-09-10T05:49:55.088Z,6.20
2022-09-10T05:52:21.252Z,4.32
2022-09-10T05:54:47.468Z,3.58
2022-09-10T05:57:13.647Z,5.25
2022-09-10T05:59:39.887Z,3.55
2022-09-10T06:02:06.526Z,4.38
2022-09-10T06:04:32.773Z,4.35
2022-09-10T06:06:58.952Z,5.93
2022-09-10T06:09:25.247Z,6.70
2022-09-10T06:11:51.461Z,3.05
2022-09-10T06:14:17.675Z,3.25
2022-09-10T06:16:43.885Z,3.65
2022-09-10T06:19:10.124Z,2.15
2022-09-10T06:21:36.294Z,4.70
2022-09-10T06:24:02.539Z,4.22
2022-09-10T06:26:28.738Z,6.50
2022-09-10T06:28:56.655Z,1.60
2022-09-10T06:31:23.204Z,3.15
2022-09-10T06:33:49.469Z,4.00
2022-09-10T06:36:15.756Z,3.33
2022-09-10T06:38:43.784Z,4.25
2022-09-10T06:41:12.022Z,4.60
2022-09-10T06:43:38.498Z,4.53
2022-09-10T06:46:24.849Z,4.57
2022-09-10T06:49:00.699Z,5.30
2022-09-10T06:51:26.912Z,4.63
2022-09-10T06:53:53.138Z,4.63
2022-09-10T06:56:19.549Z,3.15
2022-09-10T06:58:45.803Z,7.30
2022-09-10T07:01:16.018Z,3.95
2022-09-10T07:03:43.405Z,3.80
2022-09-10T07:06:10.855Z,3.45
2022-09-10T07:08:37.115Z,4.05
2022-09-10T07:11:04.745Z,5.15
2022-09-10T07:13:31.590Z,4.40
2022-09-10T07:15:58.248Z,2.67
2022-09-10T07:18:25.531Z,6.95
2022-09-10T07:20:51.772Z,5.00
2022-09-10T07:23:19.715Z,3.33
2022-09-10T07:25:47.311Z,2.90
2022-09-10T07:28:14.938Z,4.47
2022-09-10T07:30:41.823Z,5.22
2022-09-10T07:33:08.416Z,4.47
2022-09-10T07:35:36.242Z,3.03
2022-09-10T07:38:03.695Z,6.95
2022-09-10T07:40:29.934Z,3.70
2022-09-10T07:42:56.136Z,3.85
2022-09-10T07:45:22.305Z,4.07
2022-09-10T07:47:48.557Z,4.15
2022-09-10T07:50:15.001Z,6.38
2022-09-10T07:52:41.428Z,4.57
2022-09-10T07:55:07.854Z,5.57
2022-09-10T07:57:34.765Z,2.83
2022-09-10T08:00:01.058Z,3.90
2022-09-10T08:02:27.368Z,4.82
2022-09-10T08:04:53.605Z,5.88
2022-09-10T08:07:19.799Z,6.38
2022-09-10T08:09:46.026Z,5.25
2022-09-10T08:12:12.199Z,5.78
2022-09-10T08:14:38.402Z,4.38
2022-09-10T08:17:05.556Z,6.85
2022-09-10T08:19:31.742Z,8.25
2022-09-10T08:21:57.952Z,7.28
2022-09-10T08:24:24.229Z,6.57
2022-09-10T08:26:50.492Z,4.82
2022-09-10T08:29:16.739Z,4.60
2022-09-10T08:31:42.993Z,7.55
2022-09-10T08:34:10.630Z,5.95
2022-09-10T08:36:36.848Z,6.85
2022-09-10T08:39:07.610Z,4.95
2022-09-10T08:41:38.234Z,5.75
2022-09-10T08:44:09.953Z,7.90
2022-09-10T08:46:48.356Z,8.20
2022-09-10T08:49:33.453Z,7.07
2022-09-10T08:52:24.707Z,7.15
2022-09-10T08:55:04.559Z,4.05
2022-09-10T08:57:38.923Z,3.97
2022-09-10T09:00:07.213Z,9.20
2022-09-10T09:02:48.741Z,6.18
2022-09-10T09:05:17.822Z,3.53
2022-09-10T09:07:44.132Z,4.75
2022-09-10T09:10:15.058Z,6.25
2022-09-10T09:12:56.256Z,9.68
2022-09-10T09:15:25.513Z,6.13
2022-09-10T09:18:00.303Z,6.57
2022-09-10T09:20:26.547Z,5.85
2022-09-10T09:22:54.949Z,5.65
2022-09-10T09:25:23.221Z,9.90
2022-09-10T09:27:53.252Z,8.00
2022-09-10T09:30:24.190Z,10.75
2022-09-10T09:32:50.568Z,5.72
2022-09-10T09:35:23.658Z,8.40
2022-09-10T09:37:52.955Z,7.43
2022-09-10T09:40:31.273Z,5.45
2022-09-10T09:42:59.449Z,9.30
2022-09-10T09:45:37.302Z,9.05
2022-09-10T09:48:07.391Z,11.00
2022-09-10T09:50:34.981Z,9.95
2022-09-10T09:53:01.195Z,8.98
2022-09-10T09:55:33.716Z,10.02
2022-09-10T09:58:18.550Z,6.70
2022-09-10T10:00:44.889Z,8.60
2022-09-10T10:03:16.234Z,6.15
2022-09-10T10:05:42.732Z,8.30
2022-09-10T10:08:26.355Z,8.23
2022-09-10T10:10:53.651Z,9.95
2022-09-10T10:13:23.435Z,6.68
2022-09-10T10:15:50.515Z,6.95
2022-09-10T10:18:23.006Z,7.78
2022-09-10T10:20:51.017Z,7.68
2022-09-10T10:23:33.668Z,7.60
2022-09-10T10:26:15.568Z,7.57
2022-09-10T10:28:45.137Z,8.85
2022-09-10T10:31:11.605Z,11.52
2022-09-10T10:33:45.268Z,8.18
2022-09-10T10:36:31.231Z,7.72
2022-09-10T10:39:03.256Z,9.05
2022-09-10T10:41:50.762Z,7.45
2022-09-10T10:44:20.132Z,5.25
2022-09-10T10:46:49.351Z,4.93
2022-09-10T10:49:34.185Z,11.02
2022-09-10T10:52:20.683Z,7.97
2022-09-10T10:54:47.431Z,5.07
2022-09-10T10:57:35.465Z,6.40
2022-09-10T11:00:07.492Z,7.38
2022-09-10T11:02:54.484Z,8.95
2022-09-10T11:05:25.648Z,6.22
2022-09-10T11:07:52.705Z,6.45
2022-09-10T11:10:31.291Z,8.57
2022-09-10T11:13:08.844Z,10.77
2022-09-10T11:15:41.923Z,7.90
2022-09-10T11:18:27.300Z,9.35
2022-09-10T11:20:58.782Z,8.32
2022-09-10T11:23:45.117Z,8.30
2022-09-10T11:26:14.279Z,13.48
2022-09-10T11:28:43.599Z,11.45
2022-09-10T11:31:12.690Z,10.27
2022-09-10T11:33:54.601Z,8.18
2022-09-10T11:36:25.041Z,11.38
2022-09-10T11:39:11.513Z,7.00
2022-09-10T11:41:42.047Z,8.65
2022-09-10T11:44:27.336Z,7.22
2022-09-10T11:49:26.094Z,5.82
2022-09-10T11:51:52.532Z,11.57
2022-09-10T11:54:22.631Z,10.93
2022-09-10T11:57:05.358Z,12.63
2022-09-10T11:59:46.566Z,12.73
2022-09-10T12:02:19.195Z,8.18
2022-09-10T12:04:49.596Z,12.13
2022-09-10T12:07:15.796Z,10.10
2022-09-10T12:09:57.057Z,10.10
2022-09-10T12:12:31.495Z,10.15
2022-09-10T12:14:57.946Z,12.05
2022-09-10T12:17:30.751Z,14.07
2022-09-10T12:19:57.822Z,13.93
2022-09-10T12:22:34.333Z,12.75
2022-09-10T12:25:05.192Z,10.77
2022-09-10T12:27:49.732Z,12.73
2022-09-10T12:30:25.065Z,13.80
2022-09-10T12:32:53.306Z,11.13
2022-09-10T12:35:32.534Z,10.27
2022-09-10T12:38:17.354Z,11.02
2022-09-10T12:40:45.086Z,12.48
2022-09-10T12:43:34.397Z,9.05
2022-09-10T12:46:02.425Z,14.25
2022-09-10T12:48:29.715Z,11.18
2022-09-10T12:50:57.610Z,10.27
2022-09-10T12:53:31.178Z,11.07
2022-09-10T12:56:02.148Z,12.93
2022-09-10T12:58:47.091Z,10.65
2022-09-10T13:01:21.569Z,19.15
2022-09-10T13:03:52.682Z,26.33
2022-09-10T13:06:33.093Z,24.05
2022-09-10T13:08:59.384Z,30.15
2022-09-10T13:11:25.913Z,27.67
2022-09-10T13:13:54.549Z,33.45
2022-09-10T13:16:26.509Z,20.42
2022-09-10T13:18:56.907Z,23.65
2022-09-10T13:21:23.385Z,32.00
2022-09-10T13:23:50.533Z,32.40
2022-09-10T13:26:29.689Z,35.20
2022-09-10T13:28:56.850Z,35.30
2022-09-10T13:31:26.942Z,34.00
2022-09-10T13:33:53.123Z,29.92
2022-09-10T13:36:37.896Z,29.27
2022-09-10T13:39:23.555Z,32.15
2022-09-10T13:42:08.759Z,32.13
2022-09-10T13:47:04.489Z,35.45
2022-09-10T13:49:30.660Z,34.17
2022-09-10T13:51:58.779Z,37.90
2022-09-10T13:54:34.414Z,37.83
2022-09-10T13:57:03.757Z,32.35
2022-09-10T13:59:31.675Z,43.15
2022-09-10T14:02:00.817Z,35.35
2022-09-10T14:04:30.656Z,34.78
2022-09-10T14:07:07.676Z,29.83
2022-09-10T14:09:34.521Z,27.42
2022-09-10T14:12:02.246Z,34.45
2022-09-10T14:14:30.347Z,25.73
2022-09-10T14:17:02.706Z,34.95
2022-09-10T14:19:39.517Z,27.75
2022-09-10T14:22:09.956Z,21.80
2022-09-10T14:24:39.501Z,23.60
2022-09-10T14:27:06.985Z,21.27
2022-09-10T14:29:33.247Z,19.40
2022-09-10T14:32:15.523Z,16.10
2022-09-10T14:34:41.754Z,14.60
2022-09-10T14:37:26.533Z,16.60
2022-09-10T14:39:52.865Z,14.65
2022-09-10T14:42:21.840Z,11.00
2022-09-10T14:44:48.059Z,14.82
2022-09-10T14:47:22.185Z,8.73
2022-09-10T14:49:48.485Z,9.35
2022-09-10T14:52:14.737Z,7.55
2022-09-10T14:54:41.568Z,9.57
2022-09-10T14:57:13.696Z,10.65
2022-09-10T14:59:41.843Z,10.90
2022-09-10T15:02:15.404Z,10.82
2022-09-10T15:04:41.669Z,8.88
2022-09-10T15:07:09.896Z,10.50
2022-09-10T15:09:36.075Z,8.93
2022-09-10T15:12:07.392Z,10.82
2022-09-10T15:14:33.617Z,11.48
2022-09-10T15:17:00.103Z,9.00
2022-09-10T15:19:26.438Z,5.97
2022-09-10T15:21:52.647Z,9.63
2022-09-10T15:24:20.167Z,6.70
2022-09-10T15:26:46.550Z,6.15
2022-09-10T15:29:14.254Z,7.47
2022-09-10T15:31:40.582Z,6.65
2022-09-10T15:34:07.632Z,8.07
2022-09-10T15:36:35.282Z,7.85
2022-09-10T15:39:01.470Z,6.30
2022-09-10T15:41:27.812Z,6.68
2022-09-10T15:43:54.016Z,9.27
2022-09-10T15:46:24.072Z,8.18
2022-09-10T15:48:51.114Z,5.47
2022-09-10T15:51:21.285Z,7.10
2022-09-10T15:53:48.039Z,6.43
2022-09-10T15:56:14.652Z,5.75
2022-09-10T15:58:41.633Z,9.30
2022-09-10T16:01:11.298Z,7.97
2022-09-10T16:03:38.287Z,7.43
2022-09-10T16:06:05.828Z,10.45
2022-09-10T16:08:32.548Z,7.40
2022-09-10T16:10:58.892Z,9.18
2022-09-10T16:13:25.900Z,7.65
2022-09-10T16:15:59.219Z,6.30
2022-09-10T16:18:26.150Z,6.30
2022-09-10T16:20:52.328Z,7.50
2022-09-10T16:23:18.571Z,8.38
2022-09-10T16:25:52.068Z,7.53
2022-09-10T16:28:18.867Z,6.13
2022-09-10T16:30:46.084Z,6.88
2022-09-10T16:33:12.418Z,9.88
2022-09-10T16:35:38.613Z,6.65
2022-09-10T16:38:04.856Z,7.90
2022-09-10T16:40:31.055Z,6.80
2022-09-10T16:42:57.286Z,8.20
2022-09-10T16:45:23.519Z,8.30
2022-09-10T16:47:49.666Z,8.25
2022-09-10T16:50:15.935Z,8.70
2022-09-10T16:52:42.104Z,9.90
2022-09-10T16:55:08.364Z,9.95
2022-09-10T16:57:34.516Z,8.93
2022-09-10T17:00:00.722Z,7.97
2022-09-10T17:02:28.164Z,9.50
2022-09-10T17:04:55.316Z,9.25
2022-09-10T17:07:21.500Z,6.80
2022-09-10T17:09:47.688Z,6.63
2022-09-10T17:12:13.906Z,9.02
2022-09-10T17:14:40.344Z,9.63
2022-09-10T17:17:06.507Z,6.15
2022-09-10T17:19:32.685Z,8.30
2022-09-10T17:21:58.883Z,8.40
2022-09-10T17:24:25.964Z,8.60
2022-09-10T17:26:52.587Z,10.38
2022-09-10T17:29:19.914Z,9.13
2022-09-10T17:31:46.489Z,9.57
2022-09-10T17:34:14.293Z,9.80
2022-09-10T17:36:41.690Z,8.20
2022-09-10T17:39:07.902Z,6.90
2022-09-10T17:41:34.095Z,8.85
2022-09-10T17:44:00.607Z,6.63
2022-09-10T17:46:27.053Z,7.95
2022-09-10T17:48:53.890Z,7.20
2022-09-10T17:51:24.235Z,7.07
2022-09-10T17:53:51.222Z,9.27
2022-09-10T17:56:18.980Z,9.90
2022-09-10T17:58:46.964Z,10.00
2022-09-10T18:01:32.744Z,9.15
2022-09-10T18:03:59.120Z,9.45
2022-09-10T18:06:26.795Z,9.00
2022-09-10T18:08:53.561Z,11.73
2022-09-10T18:11:22.106Z,7.38
2022-09-10T18:13:50.348Z,12.80
2022-09-10T18:16:17.545Z,14.48
2022-09-10T18:18:45.423Z,15.50
2022-09-10T18:21:16.120Z,11.00
2022-09-10T18:23:44.129Z,14.02
2022-09-10T18:26:17.295Z,14.45
2022-09-10T18:28:43.773Z,14.90
2022-09-10T18:31:10.441Z,13.38
2022-09-10T18:33:40.383Z,11.82
2022-09-10T18:36:10.234Z,16.35
2022-09-10T18:38:37.991Z,13.45
2022-09-10T18:41:04.170Z,14.15
2022-09-10T18:43:31.052Z,12.40
2022-09-10T18:46:02.038Z,14.18
2022-09-10T18:48:31.856Z,14.95
2022-09-10T18:51:03.263Z,21.35
2022-09-10T18:53:29.509Z,17.05
2022-09-10T18:55:55.708Z,14.50
2022-09-10T18:58:21.923Z,16.60
2022-09-10T19:00:48.122Z,18.70
2022-09-10T19:03:14.339Z,16.50
2022-09-10T19:05:40.524Z,14.35
2022-09-10T19:08:06.710Z,18.85
2022-09-10T19:10:32.895Z,16.25
2022-09-10T19:12:59.131Z,18.30
2022-09-10T19:15:27.739Z,21.77
2022-09-10T19:17:54.010Z,19.80
2022-09-10T19:20:20.325Z,21.48
2022-09-10T19:22:46.629Z,22.20
2022-09-10T19:25:12.829Z,21.58
2022-09-10T19:27:39.294Z,18.08
2022-09-10T19:30:06.301Z,20.20
2022-09-10T19:32:32.519Z,22.35
2022-09-10T19:34:58.685Z,25.25
2022-09-10T19:37:24.949Z,28.27
2022-09-10T19:39:51.370Z,21.42
2022-09-10T19:42:17.704Z,23.65
2022-09-10T19:44:43.889Z,20.08
2022-09-10T19:47:10.102Z,25.90
2022-09-10T19:49:36.342Z,23.95
2022-09-10T19:52:04.071Z,26.23
2022-09-10T19:54:30.236Z,21.42
2022-09-10T19:56:56.446Z,26.60
2022-09-10T19:59:22.710Z,25.92
2022-09-10T20:01:48.993Z,23.38
2022-09-10T20:04:15.819Z,22.30
2022-09-10T20:06:47.437Z,20.35
2022-09-10T20:09:13.723Z,19.90
2022-09-10T20:11:40.110Z,19.63
2022-09-10T20:14:13.273Z,22.02
2022-09-10T20:16:42.428Z,21.40
2022-09-10T20:19:10.849Z,19.40
2022-09-10T20:21:37.250Z,19.50
2022-09-10T20:24:05.465Z,18.23
2022-09-10T20:26:33.314Z,24.67
2022-09-10T20:29:03.915Z,19.83
2022-09-10T20:31:31.345Z,19.30
2022-09-10T20:34:03.325Z,19.88
2022-09-10T20:36:31.195Z,15.88
2022-09-10T20:38:57.744Z,18.08
2022-09-10T20:41:24.392Z,15.23
2022-09-10T20:43:51.679Z,17.30
2022-09-10T20:46:18.501Z,15.90
2022-09-10T20:48:48.825Z,15.35
2022-09-10T20:51:17.552Z,21.30
2022-09-10T20:53:43.849Z,21.25
2022-09-10T20:56:11.789Z,19.38
2022-09-10T20:58:38.991Z,22.92
2022-09-10T21:01:06.328Z,21.33
2022-09-10T21:03:32.625Z,23.52
2022-09-10T21:05:58.834Z,27.58
2022-09-10T21:08:25.085Z,20.95
2022-09-10T21:10:51.253Z,22.48
2022-09-10T21:13:17.551Z,25.10
2022-09-10T21:15:43.798Z,25.38
2022-09-10T21:18:10.014Z,27.00
2022-09-10T21:20:36.185Z,23.50
2022-09-10T21:23:02.344Z,23.08
2022-09-10T21:25:29.098Z,24.38
2022-09-10T21:27:55.309Z,23.65
2022-09-10T21:30:21.956Z,24.23
2022-09-10T21:32:48.129Z,24.42
2022-09-10T21:35:16.172Z,24.20
2022-09-10T21:37:42.363Z,22.95
2022-09-10T21:40:10.328Z,25.63
2022-09-10T21:42:36.607Z,24.45
2022-09-10T21:45:02.843Z,20.45
2022-09-10T21:47:29.101Z,27.33
2022-09-10T21:49:55.365Z,26.15
2022-09-10T21:52:21.582Z,21.60
2022-09-10T21:54:47.775Z,27.70
2022-09-10T21:57:13.964Z,20.17
2022-09-10T21:59:41.491Z,25.08
2022-09-10T22:02:08.512Z,25.25
2022-09-10T22:04:35.026Z,23.10
2022-09-10T22:07:04.513Z,23.00
2022-09-10T22:09:31.756Z,21.05
2022-09-10T22:11:59.067Z,21.00
2022-09-10T22:14:25.532Z,23.42
2022-09-10T22:16:52.165Z,19.88
2022-09-10T22:19:20.156Z,19.73
2022-09-10T22:21:46.999Z,23.02
2022-09-10T22:24:13.844Z,21.63
2022-09-10T22:26:42.384Z,20.13
2022-09-10T22:29:09.386Z,17.90
2022-09-10T22:31:35.996Z,20.85
2022-09-10T22:34:03.954Z,22.50
2022-09-10T22:36:31.390Z,20.95
2022-09-10T22:39:05.363Z,18.38
2022-09-10T22:41:33.856Z,18.88
2022-09-10T22:44:00.702Z,24.20
2022-09-10T22:46:26.970Z,25.75
2022-09-10T22:48:53.189Z,22.80
2022-09-10T22:51:22.941Z,22.80
2022-09-10T22:53:49.545Z,23.50
2022-09-10T22:56:17.557Z,20.35
2022-09-10T22:58:44.326Z,21.45
2022-09-10T23:01:12.137Z,22.88
2022-09-10T23:03:38.760Z,22.48
2022-09-10T23:06:06.492Z,24.38
2022-09-10T23:08:33.949Z,26.25
2022-09-10T23:11:16.653Z,23.58
2022-09-10T23:13:43.850Z,27.08
2022-09-10T23:16:13.982Z,27.15
2022-09-10T23:18:41.325Z,30.58
2022-09-10T23:21:08.261Z,25.25
2022-09-10T23:23:34.526Z,29.48
2022-09-10T23:26:05.506Z,30.63
2022-09-10T23:28:31.886Z,26.60
2022-09-10T23:31:17.484Z,29.33
2022-09-10T23:33:45.127Z,27.67
2022-09-10T23:36:13.131Z,31.92
2022-09-10T23:38:39.955Z,28.75
2022-09-10T23:41:06.687Z,28.23
2022-09-10T23:43:32.996Z,31.30
2022-09-10T23:45:59.378Z,33.83
2022-09-10T23:48:25.701Z,31.92
2022-09-10T23:50:53.851Z,34.38
2022-09-10T23:53:21.261Z,34.95
2022-09-10T23:55:47.819Z,33.60
2022-09-10T23:58:14.800Z,41.03
